sensor_id;sensor_type;location;lat;lon;timestamp;temperature;humidity
5956;DHT22;3004;48.080;11.600;2022-08-21T00:00:08;15.60;99.90
5956;DHT22;3004;48.080;11.600;2022-08-21T00:02:36;15.60;99.90
5956;DHT22;3004;48.080;11.600;2022-08-21T00:05:03;15.60;99.90
5956;DHT22;3004;48.080;11.600;2022-08-21T00:07:30;15.60;99.90
5956;DHT22;3004;48.080;11.600;2022-08-21T00:09:59;15.60;99.90
5956;DHT22;3004;48.080;11.600;2022-08-21T00:12:26;15.50;99.90
5956;DHT22;3004;48.080;11.600;2022-08-21T00:14:53;15.50;99.90
5956;DHT22;3004;48.080;11.600;2022-08-21T00:17:20;15.50;99.90
5956;DHT22;3004;48.080;11.600;2022-08-21T00:19:48;15.40;99.90
5956;DHT22;3004;48.080;11.600;2022-08-21T00:22:15;15.30;99.90
5956;DHT22;3004;48.080;11.600;2022-08-21T00:24:41;15.20;99.90
5956;DHT22;3004;48.080;11.600;2022-08-21T00:27:09;15.30;99.90
5956;DHT22;3004;48.080;11.600;2022-08-21T00:29:36;15.20;99.90
5956;DHT22;3004;48.080;11.600;2022-08-21T00:32:03;15.20;99.90
5956;DHT22;3004;48.080;11.600;2022-08-21T00:34:30;15.20;99.90
5956;DHT22;3004;48.080;11.600;2022-08-21T00:36:57;15.20;99.90
5956;DHT22;3004;48.080;11.600;2022-08-21T00:39:24;15.20;99.90
5956;DHT22;3004;48.080;11.600;2022-08-21T00:41:50;15.10;99.90
5956;DHT22;3004;48.080;11.600;2022-08-21T00:44:19;15.10;99.90
5956;DHT22;3004;48.080;11.600;2022-08-21T00:46:45;15.10;99.90
5956;DHT22;3004;48.080;11.600;2022-08-21T00:49:13;15.10;99.90
5956;DHT22;3004;48.080;11.600;2022-08-21T00:51:43;15.10;99.90
5956;DHT22;3004;48.080;11.600;2022-08-21T00:54:13;15.00;99.90
5956;DHT22;3004;48.080;11.600;2022-08-21T00:56:41;15.10;99.90
5956;DHT22;3004;48.080;11.600;2022-08-21T00:59:08;15.00;99.90
5956;DHT22;3004;48.080;11.600;2022-08-21T01:01:36;15.00;99.90
5956;DHT22;3004;48.080;11.600;2022-08-21T01:04:03;15.00;99.90
5956;DHT22;3004;48.080;11.600;2022-08-21T01:06:30;15.00;99.90
5956;DHT22;3004;48.080;11.600;2022-08-21T01:08:57;14.90;99.90
5956;DHT22;3004;48.080;11.600;2022-08-21T01:11:24;14.90;99.90
5956;DHT22;3004;48.080;11.600;2022-08-21T01:13:52;14.80;99.90
5956;DHT22;3004;48.080;11.600;2022-08-21T01:16:21;14.80;99.90
5956;DHT22;3004;48.080;11.600;2022-08-21T01:18:50;14.80;99.90
5956;DHT22;3004;48.080;11.600;2022-08-21T01:21:21;14.80;99.90
5956;DHT22;3004;48.080;11.600;2022-08-21T01:23:49;14.80;99.90
5956;DHT22;3004;48.080;11.600;2022-08-21T01:26:20;14.70;99.90
5956;DHT22;3004;48.080;11.600;2022-08-21T01:28:52;14.70;99.90
5956;DHT22;3004;48.080;11.600;2022-08-21T01:31:23;14.70;99.90
5956;DHT22;3004;48.080;11.600;2022-08-21T01:33:51;14.70;99.90
5956;DHT22;3004;48.080;11.600;2022-08-21T01:36:19;14.70;99.90
5956;DHT22;3004;48.080;11.600;2022-08-21T01:38:46;14.70;99.90
5956;DHT22;3004;48.080;11.600;2022-08-21T01:41:13;14.60;99.90
5956;DHT22;3004;48.080;11.600;2022-08-21T01:43:41;14.60;99.90
5956;DHT22;3004;48.080;11.600;2022-08-21T01:46:08;14.60;99.90
5956;DHT22;3004;48.080;11.600;2022-08-21T01:48:35;14.60;99.90
5956;DHT22;3004;48.080;11.600;2022-08-21T01:51:02;14.60;99.90
5956;DHT22;3004;48.080;11.600;2022-08-21T01:53:31;14.50;99.90
5956;DHT22;3004;48.080;11.600;2022-08-21T01:55:59;14.50;99.90
5956;DHT22;3004;48.080;11.600;2022-08-21T01:58:26;14.50;99.90
5956;DHT22;3004;48.080;11.600;2022-08-21T02:00:53;14.50;99.90
5956;DHT22;3004;48.080;11.600;2022-08-21T02:03:22;14.50;99.90
5956;DHT22;3004;48.080;11.600;2022-08-21T02:05:49;14.50;99.90
5956;DHT22;3004;48.080;11.600;2022-08-21T02:08:16;14.40;99.90
5956;DHT22;3004;48.080;11.600;2022-08-21T02:10:44;14.40;99.90
5956;DHT22;3004;48.080;11.600;2022-08-21T02:13:12;14.40;99.90
5956;DHT22;3004;48.080;11.600;2022-08-21T02:15:38;14.40;99.90
5956;DHT22;3004;48.080;11.600;2022-08-21T02:18:06;14.40;99.90
5956;DHT22;3004;48.080;11.600;2022-08-21T02:20:35;14.30;99.90
5956;DHT22;3004;48.080;11.600;2022-08-21T02:23:03;14.30;99.90
5956;DHT22;3004;48.080;11.600;2022-08-21T02:25:31;14.30;99.90
5956;DHT22;3004;48.080;11.600;2022-08-21T02:28:03;14.30;99.90
5956;DHT22;3004;48.080;11.600;2022-08-21T02:30:33;14.30;99.90
5956;DHT22;3004;48.080;11.600;2022-08-21T02:33:00;14.30;99.90
5956;DHT22;3004;48.080;11.600;2022-08-21T02:35:27;14.30;99.90
5956;DHT22;3004;48.080;11.600;2022-08-21T02:37:57;14.20;99.90
5956;DHT22;3004;48.080;11.600;2022-08-21T02:40:26;14.20;99.90
5956;DHT22;3004;48.080;11.600;2022-08-21T02:42:53;14.20;99.90
5956;DHT22;3004;48.080;11.600;2022-08-21T02:45:22;14.10;99.90
5956;DHT22;3004;48.080;11.600;2022-08-21T02:47:49;14.10;99.90
5956;DHT22;3004;48.080;11.600;2022-08-21T02:50:19;14.10;99.90
5956;DHT22;3004;48.080;11.600;2022-08-21T02:52:47;14.10;99.90
5956;DHT22;3004;48.080;11.600;2022-08-21T02:55:15;14.10;99.90
5956;DHT22;3004;48.080;11.600;2022-08-21T02:57:41;14.10;99.90
5956;DHT22;3004;48.080;11.600;2022-08-21T03:00:09;14.10;99.90
5956;DHT22;3004;48.080;11.600;2022-08-21T03:02:38;14.10;99.90
5956;DHT22;3004;48.080;11.600;2022-08-21T03:05:07;14.10;99.90
5956;DHT22;3004;48.080;11.600;2022-08-21T03:07:33;14.00;99.90
5956;DHT22;3004;48.080;11.600;2022-08-21T03:10:00;14.00;99.90
5956;DHT22;3004;48.080;11.600;2022-08-21T03:12:27;14.00;99.90
5956;DHT22;3004;48.080;11.600;2022-08-21T03:14:54;14.00;99.90
5956;DHT22;3004;48.080;11.600;2022-08-21T03:17:21;14.00;99.90
5956;DHT22;3004;48.080;11.600;2022-08-21T03:19:49;13.90;99.90
5956;DHT22;3004;48.080;11.600;2022-08-21T03:22:16;13.90;99.90
5956;DHT22;3004;48.080;11.600;2022-08-21T03:24:43;13.90;99.90
5956;DHT22;3004;48.080;11.600;2022-08-21T03:27:10;13.90;99.90
5956;DHT22;3004;48.080;11.600;2022-08-21T03:29:37;13.90;99.90
5956;DHT22;3004;48.080;11.600;2022-08-21T03:32:05;13.90;99.90
5956;DHT22;3004;48.080;11.600;2022-08-21T03:34:34;13.80;99.90
5956;DHT22;3004;48.080;11.600;2022-08-21T03:37:03;13.80;99.90
5956;DHT22;3004;48.080;11.600;2022-08-21T03:39:30;13.80;99.90
5956;DHT22;3004;48.080;11.600;2022-08-21T03:41:57;13.80;99.90
5956;DHT22;3004;48.080;11.600;2022-08-21T03:44:24;13.80;99.90
5956;DHT22;3004;48.080;11.600;2022-08-21T03:46:51;13.80;99.90
5956;DHT22;3004;48.080;11.600;2022-08-21T03:49:18;13.80;99.90
5956;DHT22;3004;48.080;11.600;2022-08-21T03:51:45;13.80;99.90
5956;DHT22;3004;48.080;11.600;2022-08-21T03:54:13;13.70;99.90
5956;DHT22;3004;48.080;11.600;2022-08-21T03:56:40;13.70;99.90
5956;DHT22;3004;48.080;11.600;2022-08-21T03:59:07;13.70;99.90
5956;DHT22;3004;48.080;11.600;2022-08-21T04:01:34;13.70;99.90
5956;DHT22;3004;48.080;11.600;2022-08-21T04:04:01;13.70;99.90
5956;DHT22;3004;48.080;11.600;2022-08-21T04:06:28;13.70;99.90
5956;DHT22;3004;48.080;11.600;2022-08-21T04:08:55;13.60;99.90
5956;DHT22;3004;48.080;11.600;2022-08-21T04:11:23;13.60;99.90
5956;DHT22;3004;48.080;11.600;2022-08-21T04:13:50;13.60;99.90
5956;DHT22;3004;48.080;11.600;2022-08-21T04:16:17;13.60;99.90
5956;DHT22;3004;48.080;11.600;2022-08-21T04:18:44;13.60;99.90
5956;DHT22;3004;48.080;11.600;2022-08-21T04:21:12;13.60;99.90
5956;DHT22;3004;48.080;11.600;2022-08-21T04:23:38;13.50;99.90
5956;DHT22;3004;48.080;11.600;2022-08-21T04:26:05;13.50;99.90
5956;DHT22;3004;48.080;11.600;2022-08-21T04:28:34;13.50;99.90
5956;DHT22;3004;48.080;11.600;2022-08-21T04:31:00;13.50;99.90
5956;DHT22;3004;48.080;11.600;2022-08-21T04:33:28;13.50;99.90
5956;DHT22;3004;48.080;11.600;2022-08-21T04:35:54;13.50;99.90
5956;DHT22;3004;48.080;11.600;2022-08-21T04:38:21;13.50;99.90
5956;DHT22;3004;48.080;11.600;2022-08-21T04:40:49;13.50;99.90
5956;DHT22;3004;48.080;11.600;2022-08-21T04:43:16;13.50;99.90
5956;DHT22;3004;48.080;11.600;2022-08-21T04:45:47;13.50;99.90
5956;DHT22;3004;48.080;11.600;2022-08-21T04:48:17;13.50;99.90
5956;DHT22;3004;48.080;11.600;2022-08-21T04:50:48;13.40;99.90
5956;DHT22;3004;48.080;11.600;2022-08-21T04:53:19;13.40;99.90
5956;DHT22;3004;48.080;11.600;2022-08-21T04:55:47;13.40;99.90
5956;DHT22;3004;48.080;11.600;2022-08-21T04:58:17;13.40;99.90
5956;DHT22;3004;48.080;11.600;2022-08-21T05:00:47;13.40;99.90
5956;DHT22;3004;48.080;11.600;2022-08-21T05:03:15;13.40;99.90
5956;DHT22;3004;48.080;11.600;2022-08-21T05:05:43;13.50;99.90
5956;DHT22;3004;48.080;11.600;2022-08-21T05:08:14;13.50;99.90
5956;DHT22;3004;48.080;11.600;2022-08-21T05:10:42;13.50;99.90
5956;DHT22;3004;48.080;11.600;2022-08-21T05:13:10;13.60;99.90
5956;DHT22;3004;48.080;11.600;2022-08-21T05:15:37;13.60;99.90
5956;DHT22;3004;48.080;11.600;2022-08-21T05:18:06;13.70;99.90
5956;DHT22;3004;48.080;11.600;2022-08-21T05:20:33;13.70;99.90
5956;DHT22;3004;48.080;11.600;2022-08-21T05:23:00;13.70;99.90
5956;DHT22;3004;48.080;11.600;2022-08-21T05:25:28;13.70;99.90
5956;DHT22;3004;48.080;11.600;2022-08-21T05:27:54;13.70;99.90
5956;DHT22;3004;48.080;11.600;2022-08-21T05:30:22;13.70;99.90
5956;DHT22;3004;48.080;11.600;2022-08-21T05:32:48;13.70;99.90
5956;DHT22;3004;48.080;11.600;2022-08-21T05:35:17;13.70;99.90
5956;DHT22;3004;48.080;11.600;2022-08-21T05:37:43;13.70;99.90
5956;DHT22;3004;48.080;11.600;2022-08-21T05:40:11;13.70;99.90
5956;DHT22;3004;48.080;11.600;2022-08-21T05:42:39;13.70;99.90
5956;DHT22;3004;48.080;11.600;2022-08-21T05:45:06;13.80;99.90
5956;DHT22;3004;48.080;11.600;2022-08-21T05:47:33;13.80;99.90
5956;DHT22;3004;48.080;11.600;2022-08-21T05:50:00;13.90;99.90
5956;DHT22;3004;48.080;11.600;2022-08-21T05:52:28;13.90;99.90
5956;DHT22;3004;48.080;11.600;2022-08-21T05:54:55;13.90;99.90
5956;DHT22;3004;48.080;11.600;2022-08-21T05:57:22;14.00;99.90
5956;DHT22;3004;48.080;11.600;2022-08-21T05:59:51;14.10;99.90
5956;DHT22;3004;48.080;11.600;2022-08-21T06:02:18;14.20;99.90
5956;DHT22;3004;48.080;11.600;2022-08-21T06:04:45;14.20;99.90
5956;DHT22;3004;48.080;11.600;2022-08-21T06:07:12;14.30;99.90
5956;DHT22;3004;48.080;11.600;2022-08-21T06:09:41;14.30;99.90
5956;DHT22;3004;48.080;11.600;2022-08-21T06:12:10;14.40;99.90
5956;DHT22;3004;48.080;11.600;2022-08-21T06:14:39;14.50;99.90
5956;DHT22;3004;48.080;11.600;2022-08-21T06:17:07;14.60;99.90
5956;DHT22;3004;48.080;11.600;2022-08-21T06:19:35;14.80;99.90
5956;DHT22;3004;48.080;11.600;2022-08-21T06:22:03;14.80;99.90
5956;DHT22;3004;48.080;11.600;2022-08-21T06:24:30;14.80;99.90
5956;DHT22;3004;48.080;11.600;2022-08-21T06:27:03;14.90;99.90
5956;DHT22;3004;48.080;11.600;2022-08-21T06:29:30;15.10;99.90
5956;DHT22;3004;48.080;11.600;2022-08-21T06:31:56;15.20;99.90
5956;DHT22;3004;48.080;11.600;2022-08-21T06:34:23;15.30;99.90
5956;DHT22;3004;48.080;11.600;2022-08-21T06:36:50;15.30;99.90
5956;DHT22;3004;48.080;11.600;2022-08-21T06:39:17;15.50;99.90
5956;DHT22;3004;48.080;11.600;2022-08-21T06:41:44;15.50;99.90
5956;DHT22;3004;48.080;11.600;2022-08-21T06:44:16;15.60;99.90
5956;DHT22;3004;48.080;11.600;2022-08-21T06:46:43;15.70;99.90
5956;DHT22;3004;48.080;11.600;2022-08-21T06:49:10;15.70;99.90
5956;DHT22;3004;48.080;11.600;2022-08-21T06:51:38;15.80;99.90
5956;DHT22;3004;48.080;11.600;2022-08-21T06:54:05;15.90;99.90
5956;DHT22;3004;48.080;11.600;2022-08-21T06:56:32;15.90;99.90
5956;DHT22;3004;48.080;11.600;2022-08-21T06:59:00;15.90;99.90
5956;DHT22;3004;48.080;11.600;2022-08-21T07:01:29;16.00;99.90
5956;DHT22;3004;48.080;11.600;2022-08-21T07:03:55;16.10;99.90
5956;DHT22;3004;48.080;11.600;2022-08-21T07:06:22;16.10;99.90
5956;DHT22;3004;48.080;11.600;2022-08-21T07:08:50;16.20;99.90
5956;DHT22;3004;48.080;11.600;2022-08-21T07:11:18;16.30;99.90
5956;DHT22;3004;48.080;11.600;2022-08-21T07:13:46;16.30;99.90
5956;DHT22;3004;48.080;11.600;2022-08-21T07:16:14;16.30;99.90
5956;DHT22;3004;48.080;11.600;2022-08-21T07:18:42;16.30;99.90
5956;DHT22;3004;48.080;11.600;2022-08-21T07:21:11;16.20;99.90
5956;DHT22;3004;48.080;11.600;2022-08-21T07:23:40;16.20;99.90
5956;DHT22;3004;48.080;11.600;2022-08-21T07:26:08;16.20;99.90
5956;DHT22;3004;48.080;11.600;2022-08-21T07:28:35;16.30;99.90
5956;DHT22;3004;48.080;11.600;2022-08-21T07:31:03;16.40;99.90
5956;DHT22;3004;48.080;11.600;2022-08-21T07:33:32;16.40;99.90
5956;DHT22;3004;48.080;11.600;2022-08-21T07:36:01;16.50;99.90
5956;DHT22;3004;48.080;11.600;2022-08-21T07:38:28;16.60;99.90
5956;DHT22;3004;48.080;11.600;2022-08-21T07:40:56;16.60;99.90
5956;DHT22;3004;48.080;11.600;2022-08-21T07:43:24;16.70;99.90
5956;DHT22;3004;48.080;11.600;2022-08-21T07:45:52;16.70;99.90
5956;DHT22;3004;48.080;11.600;2022-08-21T07:48:19;16.60;99.90
5956;DHT22;3004;48.080;11.600;2022-08-21T07:50:46;16.60;99.90
5956;DHT22;3004;48.080;11.600;2022-08-21T07:53:15;16.70;99.90
5956;DHT22;3004;48.080;11.600;2022-08-21T07:55:42;16.70;99.90
5956;DHT22;3004;48.080;11.600;2022-08-21T07:58:09;16.70;99.90
5956;DHT22;3004;48.080;11.600;2022-08-21T08:00:36;16.90;99.90
5956;DHT22;3004;48.080;11.600;2022-08-21T08:03:03;16.90;99.90
5956;DHT22;3004;48.080;11.600;2022-08-21T08:05:31;16.90;99.90
5956;DHT22;3004;48.080;11.600;2022-08-21T08:08:00;16.80;99.90
5956;DHT22;3004;48.080;11.600;2022-08-21T08:10:28;16.80;99.90
5956;DHT22;3004;48.080;11.600;2022-08-21T08:12:55;16.70;99.90
5956;DHT22;3004;48.080;11.600;2022-08-21T08:15:24;16.90;99.90
5956;DHT22;3004;48.080;11.600;2022-08-21T08:17:52;17.10;99.90
5956;DHT22;3004;48.080;11.600;2022-08-21T08:20:21;17.10;99.90
5956;DHT22;3004;48.080;11.600;2022-08-21T08:22:49;17.40;99.90
5956;DHT22;3004;48.080;11.600;2022-08-21T08:25:17;17.50;99.90
5956;DHT22;3004;48.080;11.600;2022-08-21T08:27:45;17.60;99.90
5956;DHT22;3004;48.080;11.600;2022-08-21T08:30:14;17.80;99.90
5956;DHT22;3004;48.080;11.600;2022-08-21T08:32:42;17.90;99.90
5956;DHT22;3004;48.080;11.600;2022-08-21T08:35:09;17.80;99.90
5956;DHT22;3004;48.080;11.600;2022-08-21T08:37:38;17.90;99.90
5956;DHT22;3004;48.080;11.600;2022-08-21T08:40:07;18.10;99.90
5956;DHT22;3004;48.080;11.600;2022-08-21T08:42:36;18.10;99.90
5956;DHT22;3004;48.080;11.600;2022-08-21T08:45:08;18.10;99.90
5956;DHT22;3004;48.080;11.600;2022-08-21T08:47:37;18.20;99.90
5956;DHT22;3004;48.080;11.600;2022-08-21T08:50:07;18.20;99.90
5956;DHT22;3004;48.080;11.600;2022-08-21T08:52:40;18.30;99.90
5956;DHT22;3004;48.080;11.600;2022-08-21T08:55:12;18.40;99.90
5956;DHT22;3004;48.080;11.600;2022-08-21T08:57:43;18.40;99.90
5956;DHT22;3004;48.080;11.600;2022-08-21T09:00:15;18.60;99.90
5956;DHT22;3004;48.080;11.600;2022-08-21T09:02:44;18.60;99.90
5956;DHT22;3004;48.080;11.600;2022-08-21T09:05:20;18.70;99.90
5956;DHT22;3004;48.080;11.600;2022-08-21T09:07:58;18.80;99.90
5956;DHT22;3004;48.080;11.600;2022-08-21T09:10:38;18.80;99.90
5956;DHT22;3004;48.080;11.600;2022-08-21T09:13:14;18.90;99.90
5956;DHT22;3004;48.080;11.600;2022-08-21T09:15:53;19.00;99.90
5956;DHT22;3004;48.080;11.600;2022-08-21T09:18:33;19.20;99.90
5956;DHT22;3004;48.080;11.600;2022-08-21T09:21:22;19.30;99.90
5956;DHT22;3004;48.080;11.600;2022-08-21T09:23:59;19.50;99.90
5956;DHT22;3004;48.080;11.600;2022-08-21T09:26:29;19.40;99.90
5956;DHT22;3004;48.080;11.600;2022-08-21T09:28:59;19.20;99.90
5956;DHT22;3004;48.080;11.600;2022-08-21T09:31:32;19.20;99.90
5956;DHT22;3004;48.080;11.600;2022-08-21T09:34:01;19.30;99.90
5956;DHT22;3004;48.080;11.600;2022-08-21T09:36:35;19.60;99.90
5956;DHT22;3004;48.080;11.600;2022-08-21T09:39:03;19.70;99.90
5956;DHT22;3004;48.080;11.600;2022-08-21T09:41:33;19.90;99.90
5956;DHT22;3004;48.080;11.600;2022-08-21T09:44:01;20.20;99.90
5956;DHT22;3004;48.080;11.600;2022-08-21T09:46:29;20.30;99.90
5956;DHT22;3004;48.080;11.600;2022-08-21T09:48:58;20.30;99.90
5956;DHT22;3004;48.080;11.600;2022-08-21T09:51:29;20.20;99.90
5956;DHT22;3004;48.080;11.600;2022-08-21T09:54:07;20.20;99.90
5956;DHT22;3004;48.080;11.600;2022-08-21T09:56:37;20.00;99.90
5956;DHT22;3004;48.080;11.600;2022-08-21T09:59:28;19.80;99.90
5956;DHT22;3004;48.080;11.600;2022-08-21T10:01:59;19.60;99.90
5956;DHT22;3004;48.080;11.600;2022-08-21T10:04:29;19.60;99.90
5956;DHT22;3004;48.080;11.600;2022-08-21T10:07:06;19.50;99.90
5956;DHT22;3004;48.080;11.600;2022-08-21T10:09:34;19.70;99.90
5956;DHT22;3004;48.080;11.600;2022-08-21T10:12:10;19.90;99.90
5956;DHT22;3004;48.080;11.600;2022-08-21T10:14:47;19.90;99.90
5956;DHT22;3004;48.080;11.600;2022-08-21T10:17:24;19.80;99.90
5956;DHT22;3004;48.080;11.600;2022-08-21T10:19:59;19.80;99.90
5956;DHT22;3004;48.080;11.600;2022-08-21T10:22:34;19.80;99.90
5956;DHT22;3004;48.080;11.600;2022-08-21T10:25:09;20.20;99.90
5956;DHT22;3004;48.080;11.600;2022-08-21T10:27:47;20.60;99.90
5956;DHT22;3004;48.080;11.600;2022-08-21T10:30:21;20.40;99.90
5956;DHT22;3004;48.080;11.600;2022-08-21T10:33:01;20.90;99.90
5956;DHT22;3004;48.080;11.600;2022-08-21T10:35:32;20.90;99.90
5956;DHT22;3004;48.080;11.600;2022-08-21T10:38:24;20.70;99.90
5956;DHT22;3004;48.080;11.600;2022-08-21T10:41:04;20.40;99.90
5956;DHT22;3004;48.080;11.600;2022-08-21T10:43:38;20.20;99.90
5956;DHT22;3004;48.080;11.600;2022-08-21T10:46:16;20.10;99.90
5956;DHT22;3004;48.080;11.600;2022-08-21T10:48:48;20.00;99.90
5956;DHT22;3004;48.080;11.600;2022-08-21T10:51:20;20.00;99.90
5956;DHT22;3004;48.080;11.600;2022-08-21T10:53:59;20.00;99.90
5956;DHT22;3004;48.080;11.600;2022-08-21T10:56:30;20.00;99.90
5956;DHT22;3004;48.080;11.600;2022-08-21T10:59:04;20.10;99.90
5956;DHT22;3004;48.080;11.600;2022-08-21T11:01:42;20.20;99.90
5956;DHT22;3004;48.080;11.600;2022-08-21T11:04:17;20.20;99.90
5956;DHT22;3004;48.080;11.600;2022-08-21T11:06:47;20.20;99.90
5956;DHT22;3004;48.080;11.600;2022-08-21T11:09:18;20.20;99.90
5956;DHT22;3004;48.080;11.600;2022-08-21T11:11:50;20.10;99.90
5956;DHT22;3004;48.080;11.600;2022-08-21T11:14:23;20.10;99.90
5956;DHT22;3004;48.080;11.600;2022-08-21T11:16:56;20.00;99.90
5956;DHT22;3004;48.080;11.600;2022-08-21T11:19:30;20.00;99.90
5956;DHT22;3004;48.080;11.600;2022-08-21T11:22:06;20.10;99.90
5956;DHT22;3004;48.080;11.600;2022-08-21T11:24:43;20.50;99.90
5956;DHT22;3004;48.080;11.600;2022-08-21T11:27:18;21.00;99.90
5956;DHT22;3004;48.080;11.600;2022-08-21T11:29:49;21.00;99.90
5956;DHT22;3004;48.080;11.600;2022-08-21T11:32:52;21.00;99.90
5956;DHT22;3004;48.080;11.600;2022-08-21T11:35:38;20.90;99.90
5956;DHT22;3004;48.080;11.600;2022-08-21T11:38:24;20.80;99.90
5956;DHT22;3004;48.080;11.600;2022-08-21T11:41:19;20.70;99.90
5956;DHT22;3004;48.080;11.600;2022-08-21T11:43:53;20.50;99.90
5956;DHT22;3004;48.080;11.600;2022-08-21T11:46:28;20.40;99.90
5956;DHT22;3004;48.080;11.600;2022-08-21T11:49:21;20.40;99.90
5956;DHT22;3004;48.080;11.600;2022-08-21T11:52:07;20.40;99.90
5956;DHT22;3004;48.080;11.600;2022-08-21T11:54:38;20.50;99.90
5956;DHT22;3004;48.080;11.600;2022-08-21T11:57:15;20.30;99.90
5956;DHT22;3004;48.080;11.600;2022-08-21T11:59:48;20.40;99.90
5956;DHT22;3004;48.080;11.600;2022-08-21T12:02:20;20.40;99.90
5956;DHT22;3004;48.080;11.600;2022-08-21T12:04:53;20.40;99.90
5956;DHT22;3004;48.080;11.600;2022-08-21T12:07:33;20.50;99.90
5956;DHT22;3004;48.080;11.600;2022-08-21T12:10:01;20.80;99.90
5956;DHT22;3004;48.080;11.600;2022-08-21T12:12:30;21.10;99.90
5956;DHT22;3004;48.080;11.600;2022-08-21T12:17:55;21.80;99.90
5956;DHT22;3004;48.080;11.600;2022-08-21T12:20:33;22.00;99.90
5956;DHT22;3004;48.080;11.600;2022-08-21T12:23:16;22.10;99.90
5956;DHT22;3004;48.080;11.600;2022-08-21T12:25:47;22.10;99.90
5956;DHT22;3004;48.080;11.600;2022-08-21T12:28:21;22.20;99.90
5956;DHT22;3004;48.080;11.600;2022-08-21T12:30:49;21.90;99.90
5956;DHT22;3004;48.080;11.600;2022-08-21T12:33:24;22.00;99.90
5956;DHT22;3004;48.080;11.600;2022-08-21T12:36:00;22.10;99.90
5956;DHT22;3004;48.080;11.600;2022-08-21T12:38:42;22.00;99.90
5956;DHT22;3004;48.080;11.600;2022-08-21T12:41:17;21.90;99.90
5956;DHT22;3004;48.080;11.600;2022-08-21T12:43:48;21.90;99.90
5956;DHT22;3004;48.080;11.600;2022-08-21T12:46:21;21.80;99.90
5956;DHT22;3004;48.080;11.600;2022-08-21T12:48:52;21.90;99.90
5956;DHT22;3004;48.080;11.600;2022-08-21T12:51:24;22.30;99.90
5956;DHT22;3004;48.080;11.600;2022-08-21T12:53:55;22.70;99.90
5956;DHT22;3004;48.080;11.600;2022-08-21T12:56:24;22.80;99.90
5956;DHT22;3004;48.080;11.600;2022-08-21T12:58:54;23.00;99.90
5956;DHT22;3004;48.080;11.600;2022-08-21T13:01:24;23.00;99.90
5956;DHT22;3004;48.080;11.600;2022-08-21T13:03:54;23.20;99.90
5956;DHT22;3004;48.080;11.600;2022-08-21T13:06:22;23.40;99.90
5956;DHT22;3004;48.080;11.600;2022-08-21T13:08:54;23.20;99.90
5956;DHT22;3004;48.080;11.600;2022-08-21T13:11:23;23.30;99.90
5956;DHT22;3004;48.080;11.600;2022-08-21T13:13:51;23.70;99.90
5956;DHT22;3004;48.080;11.600;2022-08-21T13:16:27;23.80;99.90
5956;DHT22;3004;48.080;11.600;2022-08-21T13:18:58;23.90;99.90
5956;DHT22;3004;48.080;11.600;2022-08-21T13:21:31;23.20;99.90
5956;DHT22;3004;48.080;11.600;2022-08-21T13:24:16;22.70;99.90
5956;DHT22;3004;48.080;11.600;2022-08-21T13:26:43;22.90;99.90
5956;DHT22;3004;48.080;11.600;2022-08-21T13:29:12;23.10;99.90
5956;DHT22;3004;48.080;11.600;2022-08-21T13:31:42;23.40;99.90
5956;DHT22;3004;48.080;11.600;2022-08-21T13:34:14;23.30;99.90
5956;DHT22;3004;48.080;11.600;2022-08-21T13:36:43;23.30;99.90
5956;DHT22;3004;48.080;11.600;2022-08-21T13:39:17;23.40;99.90
5956;DHT22;3004;48.080;11.600;2022-08-21T13:41:47;23.60;99.90
5956;DHT22;3004;48.080;11.600;2022-08-21T13:44:18;23.20;99.90
5956;DHT22;3004;48.080;11.600;2022-08-21T13:46:46;23.30;99.90
5956;DHT22;3004;48.080;11.600;2022-08-21T13:49:17;23.20;99.90
5956;DHT22;3004;48.080;11.600;2022-08-21T13:51:45;23.20;99.90
5956;DHT22;3004;48.080;11.600;2022-08-21T13:54:20;22.80;99.90
5956;DHT22;3004;48.080;11.600;2022-08-21T13:56:48;22.80;99.90
5956;DHT22;3004;48.080;11.600;2022-08-21T13:59:25;22.70;99.90
5956;DHT22;3004;48.080;11.600;2022-08-21T14:01:55;22.80;99.90
5956;DHT22;3004;48.080;11.600;2022-08-21T14:04:26;22.40;99.90
5956;DHT22;3004;48.080;11.600;2022-08-21T14:06:56;22.20;99.90
5956;DHT22;3004;48.080;11.600;2022-08-21T14:09:28;22.10;99.90
5956;DHT22;3004;48.080;11.600;2022-08-21T14:11:57;22.10;99.90
5956;DHT22;3004;48.080;11.600;2022-08-21T14:14:29;22.00;99.90
5956;DHT22;3004;48.080;11.600;2022-08-21T14:16:58;22.00;99.90
5956;DHT22;3004;48.080;11.600;2022-08-21T14:19:27;21.80;99.90
5956;DHT22;3004;48.080;11.600;2022-08-21T14:21:55;21.90;99.90
5956;DHT22;3004;48.080;11.600;2022-08-21T14:24:29;22.10;99.90
5956;DHT22;3004;48.080;11.600;2022-08-21T14:27:17;22.10;99.90
5956;DHT22;3004;48.080;11.600;2022-08-21T14:29:44;22.40;99.90
5956;DHT22;3004;48.080;11.600;2022-08-21T14:32:14;22.30;99.90
5956;DHT22;3004;48.080;11.600;2022-08-21T14:34:42;22.20;99.90
5956;DHT22;3004;48.080;11.600;2022-08-21T14:37:13;22.40;99.90
5956;DHT22;3004;48.080;11.600;2022-08-21T14:39:47;22.70;99.90
5956;DHT22;3004;48.080;11.600;2022-08-21T14:42:14;22.80;99.90
5956;DHT22;3004;48.080;11.600;2022-08-21T14:44:42;22.90;99.90
5956;DHT22;3004;48.080;11.600;2022-08-21T14:47:09;22.80;99.90
5956;DHT22;3004;48.080;11.600;2022-08-21T14:49:37;22.50;99.90
5956;DHT22;3004;48.080;11.600;2022-08-21T14:52:05;22.70;99.90
5956;DHT22;3004;48.080;11.600;2022-08-21T14:54:32;22.70;99.90
5956;DHT22;3004;48.080;11.600;2022-08-21T14:57:05;22.60;99.90
5956;DHT22;3004;48.080;11.600;2022-08-21T14:59:32;22.80;99.90
5956;DHT22;3004;48.080;11.600;2022-08-21T15:02:00;22.60;99.90
5956;DHT22;3004;48.080;11.600;2022-08-21T15:04:27;22.50;99.90
5956;DHT22;3004;48.080;11.600;2022-08-21T15:06:54;22.60;99.90
5956;DHT22;3004;48.080;11.600;2022-08-21T15:09:21;22.40;99.90
5956;DHT22;3004;48.080;11.600;2022-08-21T15:11:49;22.30;99.90
5956;DHT22;3004;48.080;11.600;2022-08-21T15:14:20;22.20;99.90
5956;DHT22;3004;48.080;11.600;2022-08-21T15:16:47;22.20;99.90
5956;DHT22;3004;48.080;11.600;2022-08-21T15:19:14;22.20;99.90
5956;DHT22;3004;48.080;11.600;2022-08-21T15:21:41;22.10;99.90
5956;DHT22;3004;48.080;11.600;2022-08-21T15:24:10;22.40;99.90
5956;DHT22;3004;48.080;11.600;2022-08-21T15:26:37;22.60;99.90
5956;DHT22;3004;48.080;11.600;2022-08-21T15:29:06;22.80;99.90
5956;DHT22;3004;48.080;11.600;2022-08-21T15:31:35;22.80;99.90
5956;DHT22;3004;48.080;11.600;2022-08-21T15:34:02;22.80;99.90
5956;DHT22;3004;48.080;11.600;2022-08-21T15:36:30;23.00;99.90
5956;DHT22;3004;48.080;11.600;2022-08-21T15:38:57;23.00;99.90
5956;DHT22;3004;48.080;11.600;2022-08-21T15:41:24;22.90;99.90
5956;DHT22;3004;48.080;11.600;2022-08-21T15:43:52;22.90;99.90
5956;DHT22;3004;48.080;11.600;2022-08-21T15:46:20;22.90;99.90
5956;DHT22;3004;48.080;11.600;2022-08-21T15:48:48;22.90;99.90
5956;DHT22;3004;48.080;11.600;2022-08-21T15:51:16;22.70;99.90
5956;DHT22;3004;48.080;11.600;2022-08-21T15:53:43;22.50;99.90
5956;DHT22;3004;48.080;11.600;2022-08-21T15:56:17;22.50;99.90
5956;DHT22;3004;48.080;11.600;2022-08-21T15:58:46;22.40;99.90
5956;DHT22;3004;48.080;11.600;2022-08-21T16:01:13;22.40;99.90
5956;DHT22;3004;48.080;11.600;2022-08-21T16:03:43;22.40;99.90